createdAt,value
2019-03-27T00:03:43.530Z,21.48
2019-03-27T00:07:48.890Z,23.52
2019-03-27T00:11:54.308Z,19.77
2019-03-27T00:15:59.703Z,23.50
2019-03-27T00:20:06.436Z,22.67
2019-03-27T00:24:11.869Z,22.07
2019-03-27T00:28:17.540Z,22.25
2019-03-27T00:32:24.026Z,21.05
2019-03-27T00:36:29.407Z,23.07
2019-03-27T00:40:34.694Z,25.12
2019-03-27T00:44:40.203Z,26.12
2019-03-27T00:48:45.496Z,27.55
2019-03-27T00:52:51.030Z,23.30
2019-03-27T00:56:56.322Z,24.35
2019-03-27T01:01:12.777Z,25.82
2019-03-27T01:05:18.163Z,30.88
2019-03-27T01:09:23.504Z,29.25
2019-03-27T01:13:29.306Z,25.85
2019-03-27T01:17:34.736Z,28.65
2019-03-27T01:21:40.351Z,34.30
2019-03-27T01:25:45.762Z,31.30
2019-03-27T01:29:51.116Z,30.55
2019-03-27T01:33:56.618Z,28.00
2019-03-27T01:38:01.965Z,25.77
2019-03-27T01:42:07.567Z,26.60
2019-03-27T01:46:12.924Z,29.70
2019-03-27T01:50:18.333Z,29.92
2019-03-27T01:54:24.604Z,24.27
2019-03-27T01:58:29.957Z,26.35
2019-03-27T02:02:35.876Z,28.27
2019-03-27T02:06:41.235Z,27.50
2019-03-27T02:10:46.569Z,30.40
2019-03-27T02:14:51.892Z,25.15
2019-03-27T02:18:57.321Z,26.02
2019-03-27T02:23:02.807Z,29.98
2019-03-27T02:27:08.089Z,28.80
2019-03-27T02:31:16.483Z,25.75
2019-03-27T02:35:21.825Z,33.05
2019-03-27T02:39:27.107Z,32.17
2019-03-27T02:43:32.760Z,35.23
2019-03-27T02:47:38.129Z,34.43
2019-03-27T02:51:43.786Z,30.27
2019-03-27T02:55:49.041Z,30.30
2019-03-27T02:59:54.404Z,33.88
2019-03-27T03:03:59.943Z,31.52
2019-03-27T03:08:05.385Z,35.98
2019-03-27T03:12:10.868Z,31.60
2019-03-27T03:16:16.289Z,41.35
2019-03-27T03:20:21.713Z,35.23
2019-03-27T03:24:28.061Z,35.33
2019-03-27T03:28:33.414Z,34.03
2019-03-27T03:32:39.264Z,34.30
2019-03-27T03:36:46.026Z,41.10
2019-03-27T03:40:51.472Z,41.35
2019-03-27T03:44:56.755Z,38.65
2019-03-27T03:49:02.109Z,45.58
2019-03-27T03:53:09.858Z,39.70
2019-03-27T03:57:15.892Z,41.00
2019-03-27T04:01:22.780Z,47.75
2019-03-27T04:05:28.042Z,51.50
2019-03-27T04:09:33.397Z,43.33
2019-03-27T04:13:38.924Z,44.38
2019-03-27T04:17:44.220Z,43.95
2019-03-27T04:21:49.716Z,44.13
2019-03-27T04:26:08.812Z,48.78
2019-03-27T04:30:02.481Z,46.10
2019-03-27T04:34:09.166Z,49.70
2019-03-27T04:38:14.440Z,45.15
2019-03-27T04:42:19.795Z,48.75
2019-03-27T04:46:25.076Z,44.60
2019-03-27T04:50:30.357Z,55.75
2019-03-27T04:54:36.561Z,50.25
2019-03-27T04:58:41.960Z,45.85
2019-03-27T05:02:48.678Z,51.25
2019-03-27T05:06:53.942Z,61.65
2019-03-27T05:10:59.520Z,50.08
2019-03-27T05:15:05.202Z,53.00
2019-03-27T05:19:12.480Z,50.80
2019-03-27T05:23:18.001Z,45.80
2019-03-27T05:27:23.351Z,49.83
2019-03-27T05:31:29.099Z,51.95
2019-03-27T05:35:34.467Z,53.60
2019-03-27T05:39:40.038Z,53.35
2019-03-27T05:43:45.621Z,50.52
2019-03-27T05:47:59.523Z,49.15
2019-03-27T05:51:59.475Z,57.78
2019-03-27T05:56:05.804Z,52.15
2019-03-27T06:00:13.535Z,51.92
2019-03-27T06:04:19.117Z,52.05
2019-03-27T06:08:24.397Z,46.55
2019-03-27T06:12:29.884Z,52.10
2019-03-27T06:16:35.177Z,47.27
2019-03-27T06:20:40.540Z,48.13
2019-03-27T06:24:45.981Z,46.23
2019-03-27T06:28:51.452Z,38.63
2019-03-27T06:32:56.948Z,45.63
2019-03-27T06:37:02.219Z,43.20
2019-03-27T06:41:07.757Z,42.00
2019-03-27T06:45:13.657Z,43.05
2019-03-27T06:49:18.942Z,43.38
2019-03-27T06:53:25.333Z,45.20
2019-03-27T06:57:30.626Z,44.45
2019-03-27T07:01:35.897Z,51.13
2019-03-27T07:05:41.298Z,46.83
2019-03-27T07:09:46.675Z,49.42
2019-03-27T07:13:52.223Z,52.05
2019-03-27T07:17:58.905Z,42.08
2019-03-27T07:22:04.575Z,42.78
2019-03-27T07:26:10.037Z,42.10
2019-03-27T07:30:16.725Z,40.15
2019-03-27T07:34:22.145Z,49.80
2019-03-27T07:38:27.429Z,49.75
2019-03-27T07:42:32.764Z,42.13
2019-03-27T07:46:38.117Z,45.60
2019-03-27T07:50:43.629Z,42.15
2019-03-27T07:54:49.137Z,40.70
2019-03-27T07:58:54.492Z,41.48
2019-03-27T08:02:59.902Z,44.50
2019-03-27T08:07:05.739Z,38.90
2019-03-27T08:11:11.018Z,43.48
2019-03-27T08:15:16.767Z,41.73
2019-03-27T08:19:22.132Z,43.02
2019-03-27T08:23:27.688Z,40.12
2019-03-27T08:27:32.972Z,43.55
2019-03-27T08:31:38.281Z,41.45
2019-03-27T08:35:43.725Z,37.73
2019-03-27T08:39:49.012Z,43.80
2019-03-27T08:43:54.364Z,49.73
2019-03-27T08:47:59.719Z,47.20
2019-03-27T08:52:05.168Z,45.00
2019-03-27T08:56:10.594Z,42.78
2019-03-27T09:00:16.730Z,45.50
2019-03-27T09:04:22.106Z,47.27
2019-03-27T09:08:27.491Z,46.33
2019-03-27T09:12:32.772Z,47.70
2019-03-27T09:16:38.853Z,44.80
2019-03-27T09:20:44.477Z,45.52
2019-03-27T09:24:50.166Z,44.05
2019-03-27T09:28:55.713Z,40.88
2019-03-27T09:33:01.082Z,40.60
2019-03-27T09:37:06.440Z,39.90
2019-03-27T09:41:11.830Z,47.25
2019-03-27T09:45:17.667Z,38.98
2019-03-27T09:49:23.080Z,42.78
2019-03-27T09:53:28.518Z,39.98
2019-03-27T09:57:33.857Z,42.40
2019-03-27T10:01:39.219Z,31.57
2019-03-27T10:05:44.643Z,32.03
2019-03-27T10:09:50.590Z,29.77
2019-03-27T10:13:56.080Z,33.18
2019-03-27T10:18:01.701Z,34.05
2019-03-27T10:22:07.062Z,30.70
2019-03-27T10:26:12.495Z,32.85
2019-03-27T10:30:18.245Z,26.62
2019-03-27T10:34:23.917Z,27.00
2019-03-27T10:38:29.257Z,26.45
2019-03-27T10:42:34.640Z,23.30
2019-03-27T10:46:39.988Z,26.77
2019-03-27T10:50:45.342Z,23.47
2019-03-27T10:54:50.592Z,27.20
2019-03-27T10:58:56.032Z,29.82
2019-03-27T11:03:01.483Z,24.50
2019-03-27T11:07:06.758Z,26.82
2019-03-27T11:11:12.123Z,24.55
2019-03-27T11:15:17.644Z,28.98
2019-03-27T11:19:22.996Z,29.15
2019-03-27T11:23:28.696Z,23.52
2019-03-27T11:27:34.120Z,25.85
2019-03-27T11:31:39.400Z,23.30
2019-03-27T11:35:45.144Z,28.20
2019-03-27T11:39:50.555Z,24.77
2019-03-27T11:43:55.870Z,22.48
2019-03-27T11:48:01.313Z,22.82
2019-03-27T11:52:06.760Z,25.30
2019-03-27T11:56:12.039Z,22.73
2019-03-27T12:00:17.448Z,21.90
2019-03-27T12:04:22.794Z,24.82
2019-03-27T12:08:28.283Z,21.15
2019-03-27T12:12:33.660Z,23.30
2019-03-27T12:16:39.100Z,18.30
2019-03-27T12:20:57.700Z,24.75
2019-03-27T12:24:51.617Z,20.55
2019-03-27T12:28:56.918Z,23.10
2019-03-27T12:33:03.329Z,21.90
2019-03-27T12:37:08.591Z,20.62
2019-03-27T12:41:13.893Z,20.08
2019-03-27T12:45:19.224Z,18.62
2019-03-27T12:49:24.637Z,21.00
2019-03-27T12:53:30.334Z,21.80
2019-03-27T12:57:35.747Z,18.95
2019-03-27T13:01:41.033Z,19.90
2019-03-27T13:05:46.308Z,19.20
2019-03-27T13:09:51.740Z,17.77
2019-03-27T13:13:57.052Z,16.57
2019-03-27T13:18:02.518Z,17.37
2019-03-27T13:22:07.886Z,16.82
2019-03-27T13:26:13.153Z,17.30
2019-03-27T13:30:18.879Z,17.50
2019-03-27T13:34:24.234Z,15.50
2019-03-27T13:38:29.502Z,15.85
2019-03-27T13:42:34.904Z,15.03
2019-03-27T13:46:40.279Z,17.12
2019-03-27T13:50:45.620Z,16.65
2019-03-27T13:54:50.972Z,14.98
2019-03-27T13:58:56.235Z,19.67
2019-03-27T14:03:01.664Z,17.42
2019-03-27T14:07:07.023Z,17.40
2019-03-27T14:11:12.438Z,15.32
2019-03-27T14:15:18.781Z,15.32
2019-03-27T14:19:24.203Z,15.68
2019-03-27T14:23:29.567Z,17.40
2019-03-27T14:27:35.333Z,14.60
2019-03-27T14:31:40.603Z,15.68
2019-03-27T14:35:46.044Z,14.13
2019-03-27T14:39:51.410Z,14.23
2019-03-27T14:43:56.788Z,14.18
2019-03-27T14:48:02.085Z,15.58
2019-03-27T14:52:08.638Z,15.75
2019-03-27T14:56:14.420Z,16.48
2019-03-27T15:00:20.136Z,13.35
2019-03-27T15:04:25.448Z,14.38
2019-03-27T15:08:30.908Z,30.52
2019-03-27T15:12:36.441Z,16.05
2019-03-27T15:16:41.775Z,17.10
2019-03-27T15:20:47.128Z,15.45
2019-03-27T15:24:53.486Z,19.90
2019-03-27T15:28:58.758Z,17.73
2019-03-27T15:33:04.328Z,14.68
2019-03-27T15:37:09.655Z,13.53
2019-03-27T15:41:15.041Z,14.25
2019-03-27T15:45:21.204Z,14.43
2019-03-27T15:49:26.788Z,13.15
2019-03-27T15:53:32.277Z,14.07
2019-03-27T15:57:37.724Z,15.63
2019-03-27T16:01:43.517Z,13.32
2019-03-27T16:05:48.952Z,12.95
2019-03-27T16:09:54.406Z,13.15
2019-03-27T16:13:59.692Z,11.90
2019-03-27T16:18:05.478Z,14.60
2019-03-27T16:22:11.110Z,11.60
2019-03-27T16:26:16.477Z,13.05
2019-03-27T16:30:22.815Z,14.45
2019-03-27T16:34:28.185Z,14.55
2019-03-27T16:38:33.528Z,15.48
2019-03-27T16:42:39.866Z,16.40
2019-03-27T16:46:45.320Z,14.38
2019-03-27T16:50:51.065Z,14.95
2019-03-27T16:54:56.551Z,13.45
2019-03-27T16:59:02.291Z,12.33
2019-03-27T17:03:07.749Z,18.12
2019-03-27T17:07:13.023Z,16.85
2019-03-27T17:11:18.482Z,14.43
2019-03-27T17:15:24.220Z,13.83
2019-03-27T17:19:29.584Z,12.75
2019-03-27T17:23:35.396Z,11.83
2019-03-27T17:27:40.820Z,11.40
2019-03-27T17:31:46.190Z,9.40
2019-03-27T17:35:51.628Z,15.80
2019-03-27T17:39:56.994Z,14.30
2019-03-27T17:44:02.407Z,12.60
2019-03-27T17:48:08.036Z,14.30
2019-03-27T17:52:13.498Z,12.55
2019-03-27T17:56:18.929Z,12.65
2019-03-27T18:00:40.979Z,21.70
2019-03-27T18:04:46.844Z,12.37
2019-03-27T18:08:52.206Z,12.43
2019-03-27T18:12:57.645Z,13.80
2019-03-27T18:17:03.298Z,14.28
2019-03-27T18:21:09.792Z,16.02
2019-03-27T18:25:15.492Z,15.18
2019-03-27T18:29:21.059Z,16.52
2019-03-27T18:33:26.620Z,16.30
2019-03-27T18:37:32.121Z,14.90
2019-03-27T18:41:38.927Z,14.58
2019-03-27T18:45:44.412Z,14.70
2019-03-27T18:49:49.989Z,14.63
2019-03-27T18:53:59.907Z,13.83
2019-03-27T18:58:02.653Z,14.87
2019-03-27T19:02:08.172Z,14.55
2019-03-27T19:06:13.768Z,17.70
2019-03-27T19:10:19.314Z,23.55
2019-03-27T19:14:24.831Z,32.53
2019-03-27T19:18:30.171Z,30.48
2019-03-27T19:22:35.695Z,21.87
2019-03-27T19:26:40.972Z,25.25
2019-03-27T19:30:46.964Z,21.68
2019-03-27T19:34:52.561Z,25.23
2019-03-27T19:38:57.917Z,26.15
2019-03-27T19:43:03.536Z,29.63
2019-03-27T19:47:09.467Z,20.17
2019-03-27T19:51:15.049Z,20.02
2019-03-27T19:55:20.761Z,52.70
2019-03-27T19:59:26.034Z,22.32
2019-03-27T20:03:34.541Z,20.97
2019-03-27T20:07:39.133Z,16.27
2019-03-27T20:11:44.823Z,19.65
2019-03-27T20:15:50.551Z,18.55
2019-03-27T20:19:55.936Z,22.05
2019-03-27T20:24:01.780Z,21.23
2019-03-27T20:28:07.220Z,22.07
2019-03-27T20:32:12.963Z,19.73
2019-03-27T20:36:18.570Z,22.22
2019-03-27T20:40:24.320Z,23.00
2019-03-27T20:44:31.492Z,21.82
2019-03-27T20:48:36.938Z,24.15
2019-03-27T20:52:44.788Z,23.52
2019-03-27T20:56:50.248Z,25.97
2019-03-27T21:00:55.623Z,22.85
2019-03-27T21:05:01.084Z,21.73
2019-03-27T21:09:07.549Z,22.95
2019-03-27T21:13:13.120Z,22.75
2019-03-27T21:17:18.660Z,23.87
2019-03-27T21:21:24.260Z,25.48
2019-03-27T21:25:29.729Z,23.60
2019-03-27T21:29:35.182Z,21.62
2019-03-27T21:33:40.803Z,23.55
2019-03-27T21:37:46.283Z,26.30
2019-03-27T21:41:52.055Z,24.23
2019-03-27T21:45:57.516Z,23.77
2019-03-27T21:50:03.086Z,26.82
2019-03-27T21:54:08.800Z,27.02
2019-03-27T21:58:34.428Z,22.65
2019-03-27T22:02:40.180Z,26.00
2019-03-27T22:06:45.777Z,21.40
2019-03-27T22:10:51.303Z,21.73
2019-03-27T22:14:56.685Z,25.70
2019-03-27T22:19:02.166Z,25.50
2019-03-27T22:23:08.081Z,47.05
2019-03-27T22:27:13.772Z,30.48
2019-03-27T22:31:19.399Z,23.22
2019-03-27T22:35:24.966Z,23.18
2019-03-27T22:39:30.524Z,23.90
2019-03-27T22:43:35.999Z,23.67
2019-03-27T22:47:41.563Z,27.90
2019-03-27T22:51:47.234Z,22.80
2019-03-27T22:55:52.787Z,28.25
2019-03-27T22:59:58.147Z,26.93
2019-03-27T23:04:03.639Z,22.93
2019-03-27T23:08:09.074Z,22.85
2019-03-27T23:12:14.648Z,25.80
2019-03-27T23:16:20.155Z,23.35
2019-03-27T23:20:25.644Z,25.57
2019-03-27T23:24:31.245Z,23.85
2019-03-27T23:28:36.765Z,24.23
2019-03-27T23:32:42.486Z,24.20
2019-03-27T23:36:48.056Z,21.87
2019-03-27T23:40:53.494Z,24.18
2019-03-27T23:44:58.875Z,21.68
2019-03-27T23:49:04.645Z,23.95
2019-03-27T23:53:10.544Z,22.93
2019-03-27T23:57:16.013Z,23.15
